Time;durP1;ratioP1;P1;durP2;ratioP2;P2;SDS_P1;SDS_P2;PMS_P1;PMS_P2;Temp;Humidity;BMP_temperature;BMP_pressure;BME280_temperature;BME280_humidity;BME280_pressure;Samples;Min_cycle;Max_cycle;Signal;HPM_P1;HPM_P2
2022/05/11 00:01:12;;;;;;;8.48;1.60;;;;;;;14.81;41.50;100042.91;3112083;28;20164;-71
2022/05/11 00:02:44;;;;;;;3.75;1.08;;;;;;;14.74;41.71;100031.94;3112346;28;20073;-71
2022/05/11 00:04:18;;;;;;;10.13;1.40;;;;;;;14.72;41.81;100031.16;3113169;28;20156;-71
2022/05/11 00:05:49;;;;;;;6.68;1.60;;;;;;;14.82;42.03;100045.44;3113105;28;20638;-71
2022/05/11 00:07:21;;;;;;;5.00;1.40;;;;;;;14.83;42.28;100041.88;3112742;28;20438;-70
2022/05/11 00:08:54;;;;;;;6.70;1.33;;;;;;;14.79;42.44;100046.47;3113115;28;20096;-70
2022/05/11 00:10:26;;;;;;;2.60;1.30;;;;;;;14.78;42.23;100042.13;3112798;28;20092;-71
2022/05/11 00:12:00;;;;;;;3.57;1.43;;;;;;;14.76;42.31;100038.78;3112924;28;20055;-71
2022/05/11 00:13:32;;;;;;;5.65;1.60;;;;;;;14.75;42.48;100034.44;3112161;28;20677;-71
2022/05/11 00:15:04;;;;;;;5.78;2.00;;;;;;;14.67;42.45;100018.34;3111551;28;20060;-71
2022/05/11 00:16:37;;;;;;;2.80;1.48;;;;;;;14.69;42.63;100019.09;3111648;28;20065;-71
2022/05/11 00:18:10;;;;;;;8.67;1.30;;;;;;;14.74;42.96;100022.28;3111939;28;20061;-70
2022/05/11 00:19:42;;;;;;;4.82;1.10;;;;;;;14.73;43.08;100033.72;3115438;28;20910;-70
2022/05/11 00:21:14;;;;;;;2.33;1.30;;;;;;;14.72;42.85;100036.41;3112180;28;20054;-70
2022/05/11 00:22:47;;;;;;;6.72;1.70;;;;;;;14.70;42.99;100033.91;3111561;28;20053;-71
2022/05/11 00:24:19;;;;;;;5.90;1.30;;;;;;;14.71;43.41;100030.34;3111682;28;20065;-70
2022/05/11 00:25:51;;;;;;;4.75;1.48;;;;;;;14.71;43.22;100029.50;3112815;28;20054;-71
2022/05/11 00:27:25;;;;;;;4.35;1.63;;;;;;;14.71;43.42;100034.72;3112548;28;20053;-71
2022/05/11 00:28:57;;;;;;;5.43;1.40;;;;;;;14.68;43.76;100033.13;3112504;28;20060;-72
2022/05/11 00:30:30;;;;;;;3.42;1.40;;;;;;;14.65;44.12;100030.69;3111920;28;20057;-72
2022/05/11 00:32:02;;;;;;;;;;;;;;;14.62;43.67;100033.50;3111648;28;20125;-72
2022/05/11 00:33:34;;;;;;;3.22;1.25;;;;;;;14.60;43.75;100032.72;3111529;28;19925;-72
2022/05/11 00:35:06;;;;;;;11.07;1.40;;;;;;;14.57;43.87;100025.88;3111512;28;20198;-72
2022/05/11 00:36:38;;;;;;;5.70;1.40;;;;;;;14.49;44.41;100016.75;3111919;28;20578;-71
2022/05/11 00:38:12;;;;;;;4.10;1.38;;;;;;;14.41;44.52;100006.72;3112558;28;20135;-72
2022/05/11 00:39:43;;;;;;;4.22;1.30;;;;;;;14.44;44.51;100024.88;3111218;28;20087;-72
2022/05/11 00:41:15;;;;;;;4.65;1.50;;;;;;;14.54;44.58;100033.94;3111265;28;20085;-70
2022/05/11 00:42:48;;;;;;;3.58;1.55;;;;;;;14.47;45.01;100023.88;3111369;28;20128;-70
2022/05/11 00:44:20;;;;;;;;;;;;;;;14.44;44.74;100024.88;3111652;28;20067;-70
2022/05/11 00:45:53;;;;;;;5.72;1.70;;;;;;;14.39;44.86;100026.09;3111663;28;19925;-73
2022/05/11 00:47:28;;;;;;;7.25;1.63;;;;;;;14.06;45.37;99982.53;3111369;28;20597;-71
2022/05/11 00:50:55;;;;;;;8.95;1.88;;;;;;;14.28;45.38;100030.13;3106329;28;20197;-71
2022/05/11 00:52:31;;;;;;;;;;;;;;;14.24;45.47;100030.41;3112334;28;20573;-71
2022/05/11 00:54:06;;;;;;;3.95;1.50;;;;;;;14.19;45.35;100027.22;3111700;28;20034;-71
2022/05/11 00:55:43;;;;;;;5.53;1.85;;;;;;;14.17;45.51;100032.53;3111858;28;20564;-69
2022/05/11 00:57:19;;;;;;;6.50;2.33;;;;;;;14.12;46.25;100024.09;3112211;28;20080;-68
2022/05/11 00:58:58;;;;;;;7.80;1.63;;;;;;;14.17;45.99;100029.06;3111221;28;20581;-67
2022/05/11 01:00:30;;;;;;;5.38;1.90;;;;;;;14.11;46.12;100027.66;3111057;28;20056;-69
2022/05/11 01:02:06;;;;;;;6.70;1.58;;;;;;;13.79;46.41;99985.78;3110872;28;20057;-70
2022/05/11 01:03:41;;;;;;;5.63;1.90;;;;;;;14.05;46.43;100030.59;3110825;28;20049;-70
2022/05/11 01:05:13;;;;;;;23.05;1.92;;;;;;;14.03;46.71;100029.84;3111158;28;20049;-68
2022/05/11 01:06:46;;;;;;;6.15;2.08;;;;;;;13.98;46.63;100027.47;3111342;28;20050;-70
2022/05/11 01:08:21;;;;;;;3.42;1.67;;;;;;;13.75;46.71;99993.88;3111536;28;20053;-70
2022/05/11 01:09:53;;;;;;;7.38;1.83;;;;;;;13.83;46.93;100012.63;3111896;28;20057;-70
2022/05/11 01:11:25;;;;;;;3.85;1.77;;;;;;;13.89;46.98;100023.59;3112218;28;20138;-70
2022/05/11 01:13:01;;;;;;;7.07;1.70;;;;;;;13.89;47.05;100028.81;3111527;28;20307;-70
2022/05/11 01:14:39;;;;;;;4.85;1.73;;;;;;;13.91;47.21;100025.31;3110968;28;20064;-70
2022/05/11 01:16:11;;;;;;;6.68;2.20;;;;;;;13.80;47.27;100007.56;3111381;28;20049;-69
2022/05/11 01:17:44;;;;;;;9.02;1.70;;;;;;;13.82;47.26;100018.78;3111235;28;20136;-70
2022/05/11 01:19:25;;;;;;;8.10;2.75;;;;;;;13.78;47.10;100020.75;3110820;28;20072;-72
2022/05/11 01:20:57;;;;;;;6.38;1.58;;;;;;;13.72;47.21;100021.06;3111158;28;20104;-71
2022/05/11 01:22:35;;;;;;;5.90;1.83;;;;;;;13.70;47.41;100017.69;3111433;28;20499;-70
2022/05/11 01:24:25;;;;;;;8.25;2.03;;;;;;;13.68;47.00;100022.16;3111019;28;20119;-70
2022/05/11 01:25:59;;;;;;;4.68;2.22;;;;;;;13.62;47.12;100020.72;3108661;28;20056;-70
2022/05/11 01:27:35;;;;;;;5.93;1.75;;;;;;;13.61;47.03;100019.03;3112018;28;20053;-70
2022/05/11 01:29:07;;;;;;;6.18;1.90;;;;;;;13.57;47.26;100025.34;3111630;28;20116;-69
2022/05/11 01:30:40;;;;;;;4.88;1.70;;;;;;;13.58;47.35;100024.44;3111553;28;20406;-69
2022/05/11 01:32:12;;;;;;;5.45;1.80;;;;;;;13.56;47.46;100026.28;3111639;28;20057;-71
2022/05/11 01:33:47;;;;;;;8.88;1.90;;;;;;;13.53;47.70;100020.38;3111453;28;20060;-70
2022/05/11 01:35:32;;;;;;;7.13;2.20;;;;;;;13.52;47.40;100027.38;3111188;28;20051;-70
2022/05/11 01:37:05;;;;;;;7.50;2.17;;;;;;;13.39;47.83;100016.72;3110887;28;20400;-71
2022/05/11 01:38:42;;;;;;;4.82;1.98;;;;;;;13.43;48.00;100025.28;3110565;28;20056;-71
2022/05/11 01:40:14;;;;;;;8.45;2.15;;;;;;;13.38;48.00;100024.66;3111136;28;20064;-72
2022/05/11 01:41:52;;;;;;;6.93;2.15;;;;;;;13.37;48.12;100028.22;3111055;28;20252;-71
2022/05/11 01:43:26;;;;;;;4.82;2.00;;;;;;;13.35;48.31;100030.06;3104944;28;20059;-71
2022/05/11 01:44:58;;;;;;;4.80;1.98;;;;;;;13.33;48.23;100027.50;3111766;28;20838;-72
2022/05/11 01:46:31;;;;;;;9.88;2.55;;;;;;;13.18;48.49;100004.75;3111863;28;20057;-70
2022/05/11 01:48:02;;;;;;;6.38;2.10;;;;;;;13.12;48.29;99986.78;3110942;28;20053;-69
2022/05/11 01:49:34;;;;;;;10.27;2.55;;;;;;;13.34;48.20;100020.50;3110766;28;20088;-70
2022/05/11 01:51:07;;;;;;;11.38;2.58;;;;;;;13.35;48.18;100028.28;3110446;28;20560;-70
2022/05/11 01:52:39;;;;;;;5.22;1.95;;;;;;;13.37;48.31;100029.06;3110625;28;20514;-70
2022/05/11 01:54:12;;;;;;;8.90;1.92;;;;;;;13.38;47.87;100022.03;3110789;28;20053;-69
2022/05/11 01:55:45;;;;;;;5.65;2.13;;;;;;;13.21;47.91;99994.97;3110967;28;20088;-72
2022/05/11 01:57:19;;;;;;;6.28;2.10;;;;;;;13.41;48.39;100024.50;3110828;28;20213;-71
2022/05/11 01:58:52;;;;;;;4.82;2.25;;;;;;;13.40;48.37;100026.28;3110873;28;20053;-71
2022/05/11 02:00:24;;;;;;;;;;;;;;;13.39;48.32;100028.94;3111716;28;20528;-72
2022/05/11 02:01:59;;;;;;;10.35;2.08;;;;;;;13.29;48.18;100012.06;3111847;28;19932;-70
2022/05/11 02:03:32;;;;;;;8.30;2.03;;;;;;;13.35;48.08;100023.03;3111841;28;20663;-69
2022/05/11 02:08:44;;;;;;;5.30;1.73;;;;;;;13.31;48.18;100033.75;3112018;28;20443;-69
2022/05/11 02:10:17;;;;;;;10.23;2.85;;;;;;;13.31;48.67;100038.97;3111123;28;20111;-69
2022/05/11 02:11:49;;;;;;;;;;;;;;;13.28;48.19;100040.00;3111242;28;20057;-69
2022/05/11 02:13:23;;;;;;;6.93;2.30;;;;;;;13.27;48.34;100040.91;3110576;28;20238;-70
2022/05/11 02:14:55;;;;;;;11.68;2.35;;;;;;;13.20;48.49;100032.50;3114014;28;20053;-68
2022/05/11 02:16:28;;;;;;;6.25;1.75;;;;;;;13.24;48.86;100043.66;3110985;28;20383;-70
2022/05/11 02:17:58;;;;;;;7.95;2.30;;;;;;;13.24;48.76;100042.81;3111297;28;20691;-71
2022/05/11 02:19:31;;;;;;;9.15;2.53;;;;;;;12.95;48.84;99996.34;3105092;28;20256;-70
2022/05/11 02:21:03;;;;;;;12.98;2.78;;;;;;;13.20;49.02;100044.75;3111373;28;20041;-71
2022/05/11 02:22:35;;;;;;;12.18;2.65;;;;;;;13.17;49.06;100037.06;3111691;28;20053;-69
2022/05/11 02:24:08;;;;;;;8.45;2.42;;;;;;;13.15;48.92;100033.69;3111425;28;20823;-69
2022/05/11 02:25:46;;;;;;;11.40;2.37;;;;;;;13.17;48.94;100035.28;3111632;28;20076;-69
2022/05/11 02:27:18;;;;;;;8.43;2.53;;;;;;;13.17;49.39;100043.13;3110492;28;20060;-70
2022/05/11 02:28:55;;;;;;;8.52;2.45;;;;;;;13.17;49.38;100043.13;3111162;28;20160;-70
2022/05/11 02:30:29;;;;;;;13.52;2.75;;;;;;;13.17;49.37;100037.91;3110794;28;20593;-69
2022/05/11 02:32:02;;;;;;;7.35;2.72;;;;;;;13.17;49.75;100040.53;3110850;28;20366;-71
2022/05/11 02:33:35;;;;;;;9.57;2.70;;;;;;;13.16;49.80;100035.34;3111189;28;20486;-71
2022/05/11 02:35:13;;;;;;;4.97;2.83;;;;;;;13.12;49.70;100036.44;3104452;28;20163;-71
2022/05/11 02:36:46;;;;;;;11.40;2.70;;;;;;;13.13;49.97;100035.50;3110456;28;20283;-71
2022/05/11 02:38:22;;;;;;;7.03;2.42;;;;;;;13.12;50.38;100042.53;3112556;28;20073;-71
2022/05/11 02:39:54;;;;;;;9.10;3.22;;;;;;;13.10;50.37;100033.94;3112750;28;20050;-72
2022/05/11 02:41:26;;;;;;;10.45;3.00;;;;;;;13.10;50.48;100033.06;3113472;28;20053;-70
2022/05/11 02:43:01;;;;;;;11.60;3.50;;;;;;;13.09;50.55;100034.84;3113389;28;20485;-69
2022/05/11 02:44:33;;;;;;;11.65;3.03;;;;;;;13.08;50.86;100027.09;3113609;28;20060;-71
2022/05/11 02:46:05;;;;;;;7.68;3.17;;;;;;;13.06;50.89;100028.94;3113613;28;20072;-72
2022/05/11 02:47:36;;;;;;;9.13;3.42;;;;;;;12.93;51.22;100019.09;3113090;28;20438;-72
2022/05/11 02:49:08;;;;;;;10.60;3.38;;;;;;;12.95;51.53;100030.34;3112702;28;20514;-72
2022/05/11 02:50:43;;;;;;;12.02;3.13;;;;;;;12.87;52.03;100029.88;3112382;28;20053;-71
2022/05/11 02:52:14;;;;;;;8.45;3.47;;;;;;;12.82;52.26;100029.25;3112586;28;20057;-72
2022/05/11 02:53:47;;;;;;;9.95;3.10;;;;;;;12.78;52.28;100037.31;3113443;28;20235;-72
2022/05/11 02:55:19;;;;;;;10.55;3.70;;;;;;;12.70;52.52;100029.88;3113768;28;20863;-69
2022/05/11 02:57:08;;;;;;;7.33;3.50;;;;;;;12.67;53.10;100032.66;3019133;28;21009;-70
2022/05/11 02:58:40;;;;;;;7.10;3.40;;;;;;;12.66;52.85;100041.38;3122205;28;20315;-71
2022/05/11 03:00:16;;;;;;;8.57;3.25;;;;;;;12.40;52.81;99996.53;3122677;28;20064;-70
2022/05/11 03:01:51;;;;;;;9.15;3.28;;;;;;;12.68;52.76;100042.16;3122685;28;20095;-71
2022/05/11 03:03:23;;;;;;;7.07;3.20;;;;;;;12.65;52.79;100032.72;3122601;28;20538;-71
2022/05/11 03:04:55;;;;;;;9.45;3.80;;;;;;;12.63;52.69;100038.94;3122661;28;20050;-71
2022/05/11 03:06:27;;;;;;;15.02;4.15;;;;;;;12.65;52.73;100045.78;3122473;28;20045;-72
2022/05/11 03:07:59;;;;;;;11.60;3.17;;;;;;;12.58;52.84;100047.00;3122786;28;20054;-72
2022/05/11 03:09:31;;;;;;;11.63;3.45;;;;;;;12.43;53.08;100024.25;3122549;28;20107;-72
2022/05/11 03:11:03;;;;;;;7.20;3.70;;;;;;;12.47;53.43;100031.03;3122299;28;20419;-72
2022/05/11 03:12:35;;;;;;;8.05;3.47;;;;;;;12.42;53.68;100040.84;3122513;28;20086;-71
2022/05/11 03:14:08;;;;;;;10.25;3.42;;;;;;;12.35;53.81;100040.31;3122566;28;20053;-69
2022/05/11 03:15:42;;;;;;;8.23;3.15;;;;;;;12.30;53.99;100037.06;3122486;28;20058;-68
2022/05/11 03:17:14;;;;;;;10.13;3.05;;;;;;;12.24;53.82;100032.97;3122195;28;20100;-69
2022/05/11 03:18:46;;;;;;;7.38;3.30;;;;;;;12.16;54.25;100034.28;3122308;28;20065;-71
2022/05/11 03:20:21;;;;;;;9.32;3.90;;;;;;;12.07;54.34;100041.63;3116106;28;20061;-70
2022/05/11 03:21:53;;;;;;;7.72;3.33;;;;;;;12.00;54.72;100040.22;3122245;28;20056;-70
2022/05/11 03:23:25;;;;;;;6.72;3.85;;;;;;;11.94;54.82;100039.66;3122286;28;20057;-70
2022/05/11 03:24:57;;;;;;;9.40;2.92;;;;;;;11.91;54.72;100035.44;3122452;28;20749;-71
2022/05/11 03:26:29;;;;;;;9.00;4.03;;;;;;;11.84;55.00;100034.84;3122612;28;20123;-72
2022/05/11 03:28:01;;;;;;;12.05;4.10;;;;;;;11.91;54.77;100048.47;3122255;28;20469;-72
2022/05/11 03:29:33;;;;;;;10.40;3.50;;;;;;;11.91;54.95;100045.03;3122394;28;20053;-72
2022/05/11 03:31:07;;;;;;;13.10;4.05;;;;;;;11.86;55.13;100037.44;3122356;28;20085;-73
2022/05/11 03:34:36;;;;;;;7.47;3.70;;;;;;;11.88;55.28;100034.72;3122458;28;20054;-72
2022/05/11 03:36:08;;;;;;;7.03;3.47;;;;;;;11.72;55.30;100016.31;3122313;28;20049;-72
2022/05/11 03:37:40;;;;;;;8.27;4.03;;;;;;;11.90;55.38;100044.19;3122355;28;20049;-72
2022/05/11 03:39:12;;;;;;;10.57;3.38;;;;;;;11.93;55.04;100044.03;3122182;28;20069;-72
2022/05/11 03:40:44;;;;;;;10.55;4.13;;;;;;;11.98;55.00;100046.41;3122342;28;20049;-72
2022/05/11 03:42:22;;;;;;;9.48;3.60;;;;;;;12.00;54.94;100044.59;3122247;28;20045;-72
2022/05/11 03:43:54;;;;;;;12.60;4.03;;;;;;;12.05;55.08;100051.28;3121945;28;20111;-72
2022/05/11 03:45:26;;;;;;;12.65;4.18;;;;;;;12.06;55.10;100049.53;3122234;28;20076;-72
2022/05/11 03:47:00;;;;;;;9.35;4.07;;;;;;;11.80;54.87;100002.00;3121817;28;20084;-71
2022/05/11 03:48:34;;;;;;;10.35;4.85;;;;;;;12.11;55.26;100058.00;3121144;28;20430;-72
2022/05/11 03:50:07;;;;;;;10.38;4.38;;;;;;;12.12;55.13;100059.66;3121691;28;20084;-71
2022/05/11 03:51:39;;;;;;;;;;;;;;;12.09;55.57;100059.81;3117390;28;20049;-70
2022/05/11 03:53:10;;;;;;;13.40;4.32;;;;;;;12.10;55.31;100060.66;3122066;28;19959;-70
2022/05/11 03:54:42;;;;;;;9.05;4.18;;;;;;;12.08;55.35;100052.91;3122005;28;20061;-70
2022/05/11 03:56:15;;;;;;;16.13;4.47;;;;;;;12.04;55.59;100054.00;3122411;28;20056;-70
2022/05/11 03:57:47;;;;;;;13.65;3.78;;;;;;;11.99;55.92;100055.97;3122206;28;20133;-72
2022/05/11 03:59:19;;;;;;;20.00;4.80;;;;;;;11.92;55.83;100039.75;3122048;28;20049;-73
2022/05/11 04:00:51;;;;;;;19.95;4.38;;;;;;;11.97;56.01;100045.59;3122067;28;20065;-72
2022/05/11 04:02:24;;;;;;;9.35;4.00;;;;;;;12.02;55.78;100048.00;3122256;28;20045;-72
2022/05/11 04:03:56;;;;;;;17.15;4.40;;;;;;;11.72;55.79;99998.06;3121801;28;20115;-72
2022/05/11 04:05:28;;;;;;;11.02;3.88;;;;;;;11.76;55.60;100003.03;3115583;28;20046;-73
2022/05/11 04:07:00;;;;;;;15.40;4.32;;;;;;;12.13;55.69;100066.59;3121895;28;20083;-73
2022/05/11 04:08:31;;;;;;;14.68;4.55;;;;;;;12.16;55.49;100068.22;3122242;28;20049;-73
2022/05/11 04:10:04;;;;;;;14.48;4.30;;;;;;;12.15;55.50;100064.75;3121942;28;20083;-73
2022/05/11 04:11:36;;;;;;;11.13;4.95;;;;;;;12.14;55.58;100059.63;3121876;28;20061;-73
2022/05/11 04:13:08;;;;;;;11.27;3.97;;;;;;;12.17;55.42;100065.53;3121612;28;20115;-72
2022/05/11 04:14:40;;;;;;;14.05;4.00;;;;;;;12.17;55.99;100064.69;3122072;28;20584;-73
2022/05/11 04:16:12;;;;;;;10.80;4.28;;;;;;;12.16;55.85;100057.78;3121764;28;20057;-72
2022/05/11 04:17:46;;;;;;;12.45;3.60;;;;;;;12.16;55.90;100057.78;3121755;28;20123;-73
2022/05/11 04:19:18;;;;;;;7.35;3.65;;;;;;;12.15;56.24;100056.06;3121396;28;20123;-73
2022/05/11 04:20:50;;;;;;;12.18;4.43;;;;;;;12.18;55.97;100068.97;3121608;28;20072;-71
2022/05/11 04:22:21;;;;;;;9.57;3.92;;;;;;;12.14;56.23;100057.84;3121961;28;20061;-71
2022/05/11 04:23:53;;;;;;;8.48;3.83;;;;;;;12.23;55.90;100067.00;3121560;28;20056;-71
2022/05/11 04:25:25;;;;;;;11.82;4.20;;;;;;;12.27;55.74;100076.38;3121708;28;20131;-72
2022/05/11 04:26:58;;;;;;;11.75;3.85;;;;;;;12.32;55.66;100077.00;3121744;28;20429;-72
2022/05/11 04:28:32;;;;;;;7.18;3.92;;;;;;;12.34;55.87;100077.78;3115218;28;20079;-73
2022/05/11 04:30:07;;;;;;;14.07;4.05;;;;;;;12.32;55.62;100058.72;3121544;28;20148;-74
2022/05/11 04:31:39;;;;;;;10.95;4.30;;;;;;;12.44;55.44;100071.19;3121683;28;20053;-73
2022/05/11 04:33:13;;;;;;;10.30;3.72;;;;;;;12.37;55.71;100061.97;3124320;28;20135;-72
2022/05/11 04:34:45;;;;;;;12.93;3.92;;;;;;;12.48;55.27;100077.97;3123929;28;20049;-74
2022/05/11 04:36:17;;;;;;;10.98;3.65;;;;;;;12.49;55.54;100074.44;3124693;28;20107;-72
2022/05/11 04:37:49;;;;;;;16.63;4.30;;;;;;;12.47;55.54;100073.66;3121638;28;20057;-71
2022/05/11 04:39:21;;;;;;;13.18;4.18;;;;;;;12.57;55.55;100083.66;3121243;28;20510;-73
2022/05/11 04:40:53;;;;;;;12.90;6.53;;;;;;;12.60;55.44;100096.56;3120885;28;20507;-73
2022/05/11 04:42:25;;;;;;;24.13;11.05;;;;;;;12.63;55.25;100088.56;3120990;28;20052;-73
2022/05/11 04:43:57;;;;;;;27.25;16.23;;;;;;;12.68;55.25;100092.66;3120439;28;20556;-68
2022/05/11 04:45:29;;;;;;;16.27;4.55;;;;;;;12.71;55.32;100086.44;3120872;28;20534;-70
2022/05/11 04:47:07;;;;;;;8.27;3.50;;;;;;;12.72;54.96;100075.09;3121357;28;20135;-74
2022/05/11 04:48:42;;;;;;;17.73;4.25;;;;;;;12.77;55.26;100077.44;3121081;28;20049;-74
2022/05/11 04:50:16;;;;;;;15.23;4.63;;;;;;;12.83;55.05;100088.44;3120695;28;20053;-74
2022/05/11 04:51:50;;;;;;;7.65;3.85;;;;;;;12.80;54.90;100078.13;3121411;28;20049;-76
2022/05/11 04:53:22;;;;;;;10.85;3.47;;;;;;;12.84;55.41;100087.53;3121824;28;20111;-67
2022/05/11 04:54:54;;;;;;;6.82;2.97;;;;;;;12.86;55.20;100088.28;3126011;28;20050;-69
2022/05/11 04:56:26;;;;;;;7.10;3.50;;;;;;;12.88;55.56;100086.44;3121451;28;20360;-66
2022/05/11 04:57:59;;;;;;;9.52;3.60;;;;;;;12.90;55.31;100092.44;3120981;28;20577;-69
2022/05/11 04:59:32;;;;;;;8.95;2.95;;;;;;;12.95;55.32;100089.59;3121394;28;20434;-68
2022/05/11 05:01:03;;;;;;;17.00;3.80;;;;;;;12.98;54.98;100092.91;3121130;28;20053;-76
2022/05/11 05:02:36;;;;;;;6.30;3.13;;;;;;;13.04;55.29;100096.13;3120943;28;20080;-76
2022/05/11 05:04:10;;;;;;;13.73;3.22;;;;;;;13.06;55.04;100089.06;3121421;28;20132;-77
2022/05/11 05:05:41;;;;;;;;;;;;;;;13.08;55.32;100097.69;3121760;28;20054;-77
2022/05/11 05:07:14;;;;;;;6.15;3.13;;;;;;;13.08;54.82;100098.53;3120428;28;20318;-77
2022/05/11 05:08:45;;;;;;;7.35;3.70;;;;;;;13.14;54.84;100098.22;3122886;28;20412;-76
2022/05/11 05:10:19;;;;;;;9.07;3.08;;;;;;;13.17;54.80;100098.06;3121468;28;20152;-75
2022/05/11 05:11:51;;;;;;;;;;;;;;;13.20;54.97;100099.66;3121515;28;20097;-76
2022/05/11 05:13:22;;;;;;;8.30;3.25;;;;;;;13.21;54.73;100094.34;3121100;28;19921;-77
2022/05/11 05:14:54;;;;;;;13.75;3.63;;;;;;;13.30;54.61;100093.06;3121239;28;20115;-77
2022/05/11 05:16:26;;;;;;;10.38;3.63;;;;;;;13.33;54.83;100092.91;3121047;28;20053;-75
2022/05/11 05:18:01;;;;;;;8.18;2.97;;;;;;;13.38;54.70;100093.50;3121176;28;20057;-75
2022/05/11 05:19:34;;;;;;;9.88;3.00;;;;;;;13.46;54.36;100092.25;3121220;28;20095;-75
2022/05/11 05:21:06;;;;;;;8.45;3.92;;;;;;;13.52;54.23;100092.81;3120347;28;20491;-76
2022/05/11 05:22:38;;;;;;;9.35;3.78;;;;;;;13.58;54.49;100100.31;3120452;28;20052;-74
2022/05/11 05:24:11;;;;;;;12.48;3.95;;;;;;;13.63;54.35;100090.44;3120304;28;20119;-74
2022/05/11 05:25:43;;;;;;;8.45;4.20;;;;;;;13.72;54.27;100102.19;3120235;28;20045;-75
2022/05/11 05:27:16;;;;;;;10.32;3.60;;;;;;;13.79;53.53;100094.88;3119998;28;20118;-72
2022/05/11 05:32:27;;;;;;;6.43;3.45;;;;;;;14.08;52.30;100102.00;3120419;28;20045;-70
2022/05/11 05:34:00;;;;;;;11.85;3.92;;;;;;;14.16;52.31;100101.56;3120565;28;20045;-72
2022/05/11 05:35:33;;;;;;;13.15;3.63;;;;;;;14.28;51.44;100103.50;3121048;28;20136;-73
2022/05/11 05:37:06;;;;;;;8.73;3.03;;;;;;;14.37;51.47;100109.16;3120790;28;20454;-70
2022/05/11 05:38:39;;;;;;;6.10;2.88;;;;;;;14.40;50.98;100095.88;3121029;28;20049;-71
2022/05/11 05:40:12;;;;;;;21.08;3.65;;;;;;;14.53;50.56;100107.41;3121053;28;20061;-74
2022/05/11 05:41:44;;;;;;;13.73;3.53;;;;;;;14.61;50.64;100105.19;3120780;28;20059;-74
2022/05/11 05:43:16;;;;;;;31.88;15.65;;;;;;;14.41;50.66;100053.88;3123408;28;20060;-77
2022/05/11 05:44:47;;;;;;;33.85;18.48;;;;;;;14.85;50.75;100104.69;3120608;28;20119;-75
2022/05/11 05:46:20;;;;;;;17.98;3.88;;;;;;;14.93;50.34;100105.09;3120795;28;20458;-76
2022/05/11 05:47:54;;;;;;;15.90;3.92;;;;;;;15.01;50.14;100095.00;3120829;28;20104;-78
2022/05/11 05:49:37;;;;;;;8.35;3.38;;;;;;;15.24;50.10;100125.97;3120907;28;20069;-79
2022/05/11 05:51:13;;;;;;;12.85;3.30;;;;;;;15.27;49.39;100103.13;3120832;28;20123;-80
2022/05/11 05:52:49;;;;;;;11.52;2.78;;;;;;;15.26;49.18;100081.28;3120656;28;20119;-70
2022/05/11 05:54:21;;;;;;;11.95;3.28;;;;;;;15.61;49.35;100120.28;3120709;28;20056;-74
2022/05/11 05:55:53;;;;;;;10.00;3.28;;;;;;;15.71;49.01;100110.97;3120524;28;20065;-72
2022/05/11 05:57:26;;;;;;;9.52;3.05;;;;;;;15.66;48.57;100084.09;3120810;28;20052;-75
2022/05/11 05:58:59;;;;;;;10.93;2.88;;;;;;;15.95;48.23;100116.47;3120593;28;20046;-73
2022/05/11 06:00:30;;;;;;;12.05;2.90;;;;;;;15.74;47.55;100066.13;3120822;28;20051;-75
2022/05/11 06:02:02;;;;;;;14.45;3.63;;;;;;;16.11;47.77;100108.47;3120794;28;20064;-74
2022/05/11 06:03:36;;;;;;;7.95;2.70;;;;;;;15.99;47.36;100073.31;3120734;28;20057;-74
2022/05/11 06:05:09;;;;;;;10.90;2.88;;;;;;;16.01;47.20;100063.56;3120767;28;20054;-76
2022/05/11 06:06:42;;;;;;;6.72;2.53;;;;;;;16.40;47.10;100113.66;3117734;28;20050;-73
2022/05/11 06:08:15;;;;;;;;;;;;;;;16.51;47.03;100121.69;3120737;28;20914;-72
2022/05/11 06:09:47;;;;;;;10.43;2.53;;;;;;;16.55;46.52;100118.75;3120667;28;19975;-72
2022/05/11 06:11:19;;;;;;;8.88;2.40;;;;;;;16.53;46.49;100123.28;3119586;28;20049;-72
2022/05/11 06:12:51;;;;;;;9.75;2.53;;;;;;;16.50;45.97;100112.94;3121138;28;20061;-72
2022/05/11 06:14:23;;;;;;;12.25;2.60;;;;;;;16.43;46.40;100097.69;3122322;28;20107;-72
2022/05/11 06:15:56;;;;;;;7.55;2.30;;;;;;;16.58;46.30;100115.09;3121494;28;20049;-71
2022/05/11 06:17:29;;;;;;;10.68;2.65;;;;;;;16.56;46.68;100117.84;3122000;28;20454;-71
2022/05/11 06:19:01;;;;;;;4.10;2.10;;;;;;;16.58;46.72;100118.56;3122921;28;20061;-72
2022/05/11 06:20:32;;;;;;;8.32;2.83;;;;;;;16.63;46.44;100117.44;3123290;28;20075;-72
2022/05/11 06:22:06;;;;;;;7.10;2.50;;;;;;;16.64;46.55;100116.47;3122671;28;20045;-69
2022/05/11 06:23:38;;;;;;;8.75;2.83;;;;;;;16.71;46.36;100130.91;3123432;28;20053;-72
2022/05/11 06:25:10;;;;;;;6.80;2.15;;;;;;;16.76;46.11;100123.59;3121806;28;20053;-70
2022/05/11 06:26:42;;;;;;;4.72;1.95;;;;;;;16.74;46.40;100101.78;3117640;28;20541;-73
2022/05/11 06:28:14;;;;;;;9.40;3.40;;;;;;;16.90;46.30;100120.91;3118392;28;20162;-73
2022/05/11 06:29:52;;;;;;;9.05;2.58;;;;;;;16.97;45.82;100124.78;3118417;28;20215;-76
2022/05/11 06:31:26;;;;;;;3.45;2.10;;;;;;;16.90;45.54;100099.84;3117934;28;20054;-77
2022/05/11 06:33:00;;;;;;;10.50;2.92;;;;;;;16.83;45.41;100069.66;3118482;28;20638;-75
2022/05/11 06:34:47;;;;;;;11.13;2.38;;;;;;;17.14;45.21;100118.41;3121987;28;20580;-77
2022/05/11 06:36:23;;;;;;;5.13;1.85;;;;;;;17.27;44.96;100118.41;3118579;28;20118;-75
2022/05/11 06:38:08;;;;;;;8.93;2.03;;;;;;;17.21;44.49;100093.34;3117894;28;20049;-77
2022/05/11 06:39:45;;;;;;;19.88;2.13;;;;;;;17.26;44.23;100093.91;3118506;28;20053;-78
2022/05/11 06:41:20;;;;;;;10.25;2.20;;;;;;;17.49;44.19;100121.28;3118706;28;20131;-75
2022/05/11 06:42:52;;;;;;;7.95;1.98;;;;;;;17.54;44.02;100110.44;3117563;28;20394;-74
2022/05/11 06:44:25;;;;;;;4.95;1.73;;;;;;;17.12;43.97;100032.63;3117861;28;20064;-73
2022/05/11 06:45:57;;;;;;;;;;;;;;;17.73;43.88;100110.84;3118104;28;20069;-73
2022/05/11 06:47:29;;;;;;;6.70;1.98;;;;;;;17.80;43.51;100115.69;3118124;28;20499;-71
2022/05/11 06:49:01;;;;;;;7.22;2.05;;;;;;;17.86;43.22;100110.84;3118052;28;20065;-69
2022/05/11 06:50:33;;;;;;;5.60;1.88;;;;;;;17.88;43.04;100101.03;3122867;28;20555;-70
2022/05/11 06:52:07;;;;;;;3.30;1.55;;;;;;;17.88;42.65;100092.31;3117833;28;20778;-66
2022/05/11 06:59:24;;;;;;;7.13;1.77;;;;;;;18.30;41.86;100113.88;3116518;28;20745;-74
2022/05/11 07:00:56;;;;;;;6.85;1.77;;;;;;;18.37;41.17;100117.78;3115519;28;20803;-72
2022/05/11 07:02:28;;;;;;;11.65;1.88;;;;;;;18.37;40.77;100110.72;3117120;28;20103;-67
2022/05/11 07:04:01;;;;;;;8.55;1.92;;;;;;;18.36;40.15;100108.16;3114979;28;20159;-68
2022/05/11 07:07:53;;;;;;;7.70;2.17;;;;;;;18.55;39.79;100107.69;3094178;28;20053;-68
2022/05/11 07:09:29;;;;;;;9.30;1.52;;;;;;;18.68;39.56;100110.25;3117232;28;20088;-67
2022/05/11 07:12:51;;;;;;;8.88;2.05;;;;;;;18.89;38.98;100107.84;3111663;28;20065;-68
2022/05/11 07:14:23;;;;;;;4.75;1.88;;;;;;;18.99;38.86;100111.47;3111035;28;20503;-68
2022/05/11 07:15:56;;;;;;;8.88;2.03;;;;;;;19.12;39.22;100106.94;3117374;28;20057;-67
2022/05/11 07:17:32;;;;;;;6.97;1.67;;;;;;;19.04;39.00;100078.47;3117028;28;20081;-69
2022/05/11 07:19:05;;;;;;;7.00;1.75;;;;;;;19.32;38.39;100108.09;3117213;28;20136;-74
2022/05/11 07:20:38;;;;;;;11.57;5.22;;;;;;;19.45;38.51;100107.97;3117342;28;20234;-74
2022/05/11 07:22:10;;;;;;;20.67;4.88;;;;;;;19.49;38.02;100083.84;3117400;28;20541;-70
2022/05/11 07:23:42;;;;;;;6.78;1.77;;;;;;;19.65;37.62;100090.59;3116675;28;20107;-69
2022/05/11 07:25:19;;;;;;;7.82;1.90;;;;;;;19.75;37.02;100095.03;3117437;28;20053;-72
2022/05/11 07:26:55;;;;;;;7.18;2.03;;;;;;;19.86;37.04;100099.47;3116802;28;20359;-72
2022/05/11 07:28:30;;;;;;;5.80;1.75;;;;;;;19.97;37.00;100096.81;3116244;28;20300;-72
2022/05/11 07:30:05;;;;;;;4.47;1.90;;;;;;;20.01;36.14;100097.41;3110634;28;20151;-72
2022/05/11 07:31:41;;;;;;;7.85;1.88;;;;;;;20.02;36.03;100092.97;3109837;28;20145;-72
2022/05/11 07:33:14;;;;;;;6.53;1.73;;;;;;;20.04;36.22;100097.16;3115961;28;20053;-72
2022/05/11 07:34:50;;;;;;;6.25;1.75;;;;;;;19.77;36.31;100039.44;3116795;28;20056;-72